sensor_id;sensor_type;location;lat;lon;timestamp;temperature;humidity
20977;DHT22;10647;51.016;3.720;2023-03-14T00:00:21;12.20;99.90
20977;DHT22;10647;51.016;3.720;2023-03-14T00:02:53;12.10;99.90
20977;DHT22;10647;51.016;3.720;2023-03-14T00:05:20;12.20;99.90
20977;DHT22;10647;51.016;3.720;2023-03-14T00:07:48;12.10;99.90
20977;DHT22;10647;51.016;3.720;2023-03-14T00:10:16;12.10;99.90
20977;DHT22;10647;51.016;3.720;2023-03-14T00:12:44;12.00;99.90
20977;DHT22;10647;51.016;3.720;2023-03-14T00:15:12;12.00;99.90
20977;DHT22;10647;51.016;3.720;2023-03-14T00:17:42;12.00;99.90
20977;DHT22;10647;51.016;3.720;2023-03-14T00:20:11;12.00;99.90
20977;DHT22;10647;51.016;3.720;2023-03-14T00:22:39;11.90;99.90
20977;DHT22;10647;51.016;3.720;2023-03-14T00:25:09;11.90;99.90
20977;DHT22;10647;51.016;3.720;2023-03-14T00:27:37;11.90;99.90
20977;DHT22;10647;51.016;3.720;2023-03-14T00:30:05;11.90;99.90
20977;DHT22;10647;51.016;3.720;2023-03-14T00:32:34;11.90;99.90
20977;DHT22;10647;51.016;3.720;2023-03-14T00:35:02;11.90;99.90
20977;DHT22;10647;51.016;3.720;2023-03-14T00:37:31;11.90;99.90
20977;DHT22;10647;51.016;3.720;2023-03-14T00:39:59;11.90;99.90
20977;DHT22;10647;51.016;3.720;2023-03-14T00:42:26;11.80;99.90
20977;DHT22;10647;51.016;3.720;2023-03-14T00:44:54;11.80;99.90
20977;DHT22;10647;51.016;3.720;2023-03-14T00:47:21;11.80;99.90
20977;DHT22;10647;51.016;3.720;2023-03-14T00:49:49;11.80;99.90
20977;DHT22;10647;51.016;3.720;2023-03-14T00:52:16;11.80;99.90
20977;DHT22;10647;51.016;3.720;2023-03-14T00:54:44;11.80;99.90
20977;DHT22;10647;51.016;3.720;2023-03-14T00:57:12;11.90;99.90
20977;DHT22;10647;51.016;3.720;2023-03-14T00:59:39;11.90;99.90
20977;DHT22;10647;51.016;3.720;2023-03-14T01:02:07;11.90;99.90
20977;DHT22;10647;51.016;3.720;2023-03-14T01:04:34;12.10;99.90
20977;DHT22;10647;51.016;3.720;2023-03-14T01:07:04;12.10;99.90
20977;DHT22;10647;51.016;3.720;2023-03-14T01:09:31;12.10;99.90
20977;DHT22;10647;51.016;3.720;2023-03-14T01:11:59;12.00;99.90
20977;DHT22;10647;51.016;3.720;2023-03-14T01:14:26;12.00;99.90
20977;DHT22;10647;51.016;3.720;2023-03-14T01:16:54;12.10;99.90
20977;DHT22;10647;51.016;3.720;2023-03-14T01:19:23;12.00;99.90
20977;DHT22;10647;51.016;3.720;2023-03-14T01:21:51;11.90;99.90
20977;DHT22;10647;51.016;3.720;2023-03-14T01:24:18;11.80;99.90
20977;DHT22;10647;51.016;3.720;2023-03-14T01:26:47;11.80;99.90
20977;DHT22;10647;51.016;3.720;2023-03-14T01:29:15;11.80;99.90
20977;DHT22;10647;51.016;3.720;2023-03-14T01:31:42;11.80;99.90
20977;DHT22;10647;51.016;3.720;2023-03-14T01:34:10;11.80;99.90
20977;DHT22;10647;51.016;3.720;2023-03-14T01:36:38;11.70;99.90
20977;DHT22;10647;51.016;3.720;2023-03-14T01:39:05;11.80;99.90
20977;DHT22;10647;51.016;3.720;2023-03-14T01:41:34;11.80;99.90
20977;DHT22;10647;51.016;3.720;2023-03-14T01:44:02;11.80;99.90
20977;DHT22;10647;51.016;3.720;2023-03-14T01:46:37;11.80;99.90
20977;DHT22;10647;51.016;3.720;2023-03-14T01:49:24;11.80;99.90
20977;DHT22;10647;51.016;3.720;2023-03-14T01:54:49;12.10;99.90
20977;DHT22;10647;51.016;3.720;2023-03-14T01:59:47;12.20;99.90
20977;DHT22;10647;51.016;3.720;2023-03-14T02:05:04;12.20;99.90
20977;DHT22;10647;51.016;3.720;2023-03-14T02:07:51;12.30;99.90
20977;DHT22;10647;51.016;3.720;2023-03-14T02:10:25;12.30;99.90
20977;DHT22;10647;51.016;3.720;2023-03-14T02:12:55;12.30;99.90
20977;DHT22;10647;51.016;3.720;2023-03-14T02:15:23;12.30;99.90
20977;DHT22;10647;51.016;3.720;2023-03-14T02:17:52;12.30;99.90
20977;DHT22;10647;51.016;3.720;2023-03-14T02:23:02;12.40;99.90
20977;DHT22;10647;51.016;3.720;2023-03-14T02:25:54;12.40;99.90
20977;DHT22;10647;51.016;3.720;2023-03-14T02:28:21;12.40;99.90
20977;DHT22;10647;51.016;3.720;2023-03-14T02:30:48;12.40;99.90
20977;DHT22;10647;51.016;3.720;2023-03-14T02:33:18;12.50;99.90
20977;DHT22;10647;51.016;3.720;2023-03-14T02:36:00;12.50;99.90
20977;DHT22;10647;51.016;3.720;2023-03-14T02:41:02;12.40;99.90
20977;DHT22;10647;51.016;3.720;2023-03-14T02:43:30;12.50;99.90
20977;DHT22;10647;51.016;3.720;2023-03-14T02:45:57;12.40;99.90
20977;DHT22;10647;51.016;3.720;2023-03-14T02:48:41;12.30;99.90
20977;DHT22;10647;51.016;3.720;2023-03-14T02:51:05;12.20;99.90
20977;DHT22;10647;51.016;3.720;2023-03-14T02:53:35;12.10;99.90
20977;DHT22;10647;51.016;3.720;2023-03-14T02:56:04;12.00;99.90
20977;DHT22;10647;51.016;3.720;2023-03-14T02:58:32;12.00;99.90
20977;DHT22;10647;51.016;3.720;2023-03-14T03:00:59;12.10;99.90
20977;DHT22;10647;51.016;3.720;2023-03-14T03:03:27;12.10;99.90
20977;DHT22;10647;51.016;3.720;2023-03-14T03:05:56;12.10;99.90
20977;DHT22;10647;51.016;3.720;2023-03-14T03:08:26;12.10;99.90
20977;DHT22;10647;51.016;3.720;2023-03-14T03:10:54;12.20;99.90
20977;DHT22;10647;51.016;3.720;2023-03-14T03:13:22;12.10;99.90
20977;DHT22;10647;51.016;3.720;2023-03-14T03:15:49;12.10;99.90
20977;DHT22;10647;51.016;3.720;2023-03-14T03:18:17;12.20;99.90
20977;DHT22;10647;51.016;3.720;2023-03-14T03:20:44;12.20;99.90
20977;DHT22;10647;51.016;3.720;2023-03-14T03:23:12;12.30;99.90
20977;DHT22;10647;51.016;3.720;2023-03-14T03:25:41;12.30;99.90
20977;DHT22;10647;51.016;3.720;2023-03-14T03:28:08;12.30;99.90
20977;DHT22;10647;51.016;3.720;2023-03-14T03:30:40;12.30;99.90
20977;DHT22;10647;51.016;3.720;2023-03-14T03:33:14;12.30;99.90
20977;DHT22;10647;51.016;3.720;2023-03-14T03:35:46;12.30;99.90
20977;DHT22;10647;51.016;3.720;2023-03-14T03:38:14;12.30;99.90
20977;DHT22;10647;51.016;3.720;2023-03-14T03:40:43;12.40;99.90
20977;DHT22;10647;51.016;3.720;2023-03-14T03:43:10;12.40;99.90
20977;DHT22;10647;51.016;3.720;2023-03-14T03:45:38;12.40;99.90
20977;DHT22;10647;51.016;3.720;2023-03-14T03:48:06;12.50;99.90
20977;DHT22;10647;51.016;3.720;2023-03-14T03:50:34;12.30;99.90
20977;DHT22;10647;51.016;3.720;2023-03-14T03:53:02;12.40;99.90
20977;DHT22;10647;51.016;3.720;2023-03-14T03:55:30;12.40;99.90
20977;DHT22;10647;51.016;3.720;2023-03-14T03:57:58;12.40;99.90
20977;DHT22;10647;51.016;3.720;2023-03-14T04:00:25;12.40;99.90
20977;DHT22;10647;51.016;3.720;2023-03-14T04:02:53;12.40;99.90
20977;DHT22;10647;51.016;3.720;2023-03-14T04:05:20;12.40;99.90
20977;DHT22;10647;51.016;3.720;2023-03-14T04:07:48;12.40;99.90
20977;DHT22;10647;51.016;3.720;2023-03-14T04:10:15;12.30;99.90
20977;DHT22;10647;51.016;3.720;2023-03-14T04:12:43;12.30;99.90
20977;DHT22;10647;51.016;3.720;2023-03-14T04:15:11;12.20;99.90
20977;DHT22;10647;51.016;3.720;2023-03-14T04:17:38;12.20;99.90
20977;DHT22;10647;51.016;3.720;2023-03-14T04:20:07;12.30;99.90
20977;DHT22;10647;51.016;3.720;2023-03-14T04:22:37;12.20;99.90
20977;DHT22;10647;51.016;3.720;2023-03-14T04:25:05;12.30;99.90
20977;DHT22;10647;51.016;3.720;2023-03-14T04:27:33;12.20;99.90
20977;DHT22;10647;51.016;3.720;2023-03-14T04:30:01;12.20;99.90
20977;DHT22;10647;51.016;3.720;2023-03-14T04:32:29;12.30;99.90
20977;DHT22;10647;51.016;3.720;2023-03-14T04:34:57;12.30;99.90
20977;DHT22;10647;51.016;3.720;2023-03-14T04:37:25;12.30;99.90
20977;DHT22;10647;51.016;3.720;2023-03-14T04:39:54;12.30;99.90
20977;DHT22;10647;51.016;3.720;2023-03-14T04:42:21;12.30;99.90
20977;DHT22;10647;51.016;3.720;2023-03-14T04:44:49;12.30;99.90
20977;DHT22;10647;51.016;3.720;2023-03-14T04:47:17;12.40;99.90
20977;DHT22;10647;51.016;3.720;2023-03-14T04:49:45;12.40;99.90
20977;DHT22;10647;51.016;3.720;2023-03-14T04:52:13;12.40;99.90
20977;DHT22;10647;51.016;3.720;2023-03-14T04:54:41;12.40;99.90
20977;DHT22;10647;51.016;3.720;2023-03-14T04:57:09;12.50;99.90
20977;DHT22;10647;51.016;3.720;2023-03-14T04:59:36;12.40;99.90
20977;DHT22;10647;51.016;3.720;2023-03-14T05:02:04;12.50;99.90
20977;DHT22;10647;51.016;3.720;2023-03-14T05:04:32;12.60;99.90
20977;DHT22;10647;51.016;3.720;2023-03-14T05:07:00;12.60;99.90
20977;DHT22;10647;51.016;3.720;2023-03-14T05:09:28;12.60;99.90
20977;DHT22;10647;51.016;3.720;2023-03-14T05:11:55;12.60;99.90
20977;DHT22;10647;51.016;3.720;2023-03-14T05:14:23;12.50;99.90
20977;DHT22;10647;51.016;3.720;2023-03-14T05:16:51;12.40;99.90
20977;DHT22;10647;51.016;3.720;2023-03-14T05:19:18;12.30;99.90
20977;DHT22;10647;51.016;3.720;2023-03-14T05:21:46;12.20;99.90
20977;DHT22;10647;51.016;3.720;2023-03-14T05:24:13;12.00;99.90
20977;DHT22;10647;51.016;3.720;2023-03-14T05:26:41;11.90;99.90
20977;DHT22;10647;51.016;3.720;2023-03-14T05:29:09;11.90;99.90
20977;DHT22;10647;51.016;3.720;2023-03-14T05:31:37;12.00;99.90
20977;DHT22;10647;51.016;3.720;2023-03-14T05:34:04;11.90;99.90
20977;DHT22;10647;51.016;3.720;2023-03-14T05:36:32;11.90;99.90
20977;DHT22;10647;51.016;3.720;2023-03-14T05:39:00;11.90;99.90
20977;DHT22;10647;51.016;3.720;2023-03-14T05:41:27;11.90;99.90
20977;DHT22;10647;51.016;3.720;2023-03-14T05:43:56;11.90;99.90
20977;DHT22;10647;51.016;3.720;2023-03-14T05:46:24;11.80;99.90
20977;DHT22;10647;51.016;3.720;2023-03-14T05:48:51;11.60;99.90
20977;DHT22;10647;51.016;3.720;2023-03-14T05:51:19;10.70;99.90
20977;DHT22;10647;51.016;3.720;2023-03-14T05:53:46;10.50;99.90
20977;DHT22;10647;51.016;3.720;2023-03-14T05:56:14;10.40;99.90
20977;DHT22;10647;51.016;3.720;2023-03-14T05:58:43;10.40;99.90
20977;DHT22;10647;51.016;3.720;2023-03-14T06:01:12;10.20;99.90
20977;DHT22;10647;51.016;3.720;2023-03-14T06:03:39;9.90;99.90
20977;DHT22;10647;51.016;3.720;2023-03-14T06:06:07;9.80;99.90
20977;DHT22;10647;51.016;3.720;2023-03-14T06:08:35;9.80;99.90
20977;DHT22;10647;51.016;3.720;2023-03-14T06:11:03;9.80;99.90
20977;DHT22;10647;51.016;3.720;2023-03-14T06:13:31;9.50;99.90
20977;DHT22;10647;51.016;3.720;2023-03-14T06:15:59;9.40;99.90
20977;DHT22;10647;51.016;3.720;2023-03-14T06:18:26;9.40;99.90
20977;DHT22;10647;51.016;3.720;2023-03-14T06:20:56;9.40;99.90
20977;DHT22;10647;51.016;3.720;2023-03-14T06:23:24;9.40;99.90
20977;DHT22;10647;51.016;3.720;2023-03-14T06:25:52;9.40;99.90
20977;DHT22;10647;51.016;3.720;2023-03-14T06:28:20;9.20;99.90
20977;DHT22;10647;51.016;3.720;2023-03-14T06:30:47;9.20;99.90
20977;DHT22;10647;51.016;3.720;2023-03-14T06:33:15;9.20;99.90
20977;DHT22;10647;51.016;3.720;2023-03-14T06:35:42;9.30;99.90
20977;DHT22;10647;51.016;3.720;2023-03-14T06:38:10;9.10;99.90
20977;DHT22;10647;51.016;3.720;2023-03-14T06:40:37;9.10;99.90
20977;DHT22;10647;51.016;3.720;2023-03-14T06:43:07;9.30;99.90
20977;DHT22;10647;51.016;3.720;2023-03-14T06:45:37;9.30;99.90
20977;DHT22;10647;51.016;3.720;2023-03-14T06:48:04;9.30;99.90
20977;DHT22;10647;51.016;3.720;2023-03-14T06:50:32;9.20;99.90
20977;DHT22;10647;51.016;3.720;2023-03-14T06:52:59;9.20;99.90
20977;DHT22;10647;51.016;3.720;2023-03-14T06:55:28;9.20;99.90
20977;DHT22;10647;51.016;3.720;2023-03-14T06:57:55;9.20;99.90
20977;DHT22;10647;51.016;3.720;2023-03-14T07:00:23;9.20;99.90
20977;DHT22;10647;51.016;3.720;2023-03-14T07:02:51;9.20;99.90
20977;DHT22;10647;51.016;3.720;2023-03-14T07:05:19;9.30;99.90
20977;DHT22;10647;51.016;3.720;2023-03-14T07:07:46;9.40;99.90
20977;DHT22;10647;51.016;3.720;2023-03-14T07:10:14;9.20;99.90
20977;DHT22;10647;51.016;3.720;2023-03-14T07:12:42;9.20;99.90
20977;DHT22;10647;51.016;3.720;2023-03-14T07:15:09;9.20;99.90
20977;DHT22;10647;51.016;3.720;2023-03-14T07:17:37;9.30;99.90
20977;DHT22;10647;51.016;3.720;2023-03-14T07:20:05;9.20;99.90
20977;DHT22;10647;51.016;3.720;2023-03-14T07:22:33;9.00;99.90
20977;DHT22;10647;51.016;3.720;2023-03-14T07:25:01;9.20;99.90
20977;DHT22;10647;51.016;3.720;2023-03-14T07:27:29;9.20;99.90
20977;DHT22;10647;51.016;3.720;2023-03-14T07:29:56;9.20;99.90
20977;DHT22;10647;51.016;3.720;2023-03-14T07:32:24;9.40;99.90
20977;DHT22;10647;51.016;3.720;2023-03-14T07:34:52;9.50;99.90
20977;DHT22;10647;51.016;3.720;2023-03-14T07:37:19;9.40;99.90
20977;DHT22;10647;51.016;3.720;2023-03-14T07:39:47;9.30;99.90
20977;DHT22;10647;51.016;3.720;2023-03-14T07:42:14;9.30;99.90
20977;DHT22;10647;51.016;3.720;2023-03-14T07:44:42;9.10;99.90
20977;DHT22;10647;51.016;3.720;2023-03-14T07:47:10;8.90;99.90
20977;DHT22;10647;51.016;3.720;2023-03-14T07:49:37;8.80;99.90
20977;DHT22;10647;51.016;3.720;2023-03-14T07:52:05;8.90;99.90
20977;DHT22;10647;51.016;3.720;2023-03-14T07:54:33;8.90;99.90
20977;DHT22;10647;51.016;3.720;2023-03-14T07:57:01;8.70;99.90
20977;DHT22;10647;51.016;3.720;2023-03-14T07:59:28;8.70;99.90
20977;DHT22;10647;51.016;3.720;2023-03-14T08:01:56;9.00;99.90
20977;DHT22;10647;51.016;3.720;2023-03-14T08:04:24;9.00;99.90
20977;DHT22;10647;51.016;3.720;2023-03-14T08:06:53;8.90;99.90
20977;DHT22;10647;51.016;3.720;2023-03-14T08:09:21;8.90;99.90
20977;DHT22;10647;51.016;3.720;2023-03-14T08:11:49;8.90;99.90
20977;DHT22;10647;51.016;3.720;2023-03-14T08:14:16;8.70;99.90
20977;DHT22;10647;51.016;3.720;2023-03-14T08:16:44;8.70;99.90
20977;DHT22;10647;51.016;3.720;2023-03-14T08:19:11;8.70;99.90
20977;DHT22;10647;51.016;3.720;2023-03-14T08:21:39;8.90;99.90
20977;DHT22;10647;51.016;3.720;2023-03-14T08:24:07;8.80;99.90
20977;DHT22;10647;51.016;3.720;2023-03-14T08:26:34;8.70;99.90
20977;DHT22;10647;51.016;3.720;2023-03-14T08:29:02;8.80;99.90
20977;DHT22;10647;51.016;3.720;2023-03-14T08:31:31;8.80;99.90
20977;DHT22;10647;51.016;3.720;2023-03-14T08:33:59;8.70;99.90
20977;DHT22;10647;51.016;3.720;2023-03-14T08:36:28;8.80;99.90
20977;DHT22;10647;51.016;3.720;2023-03-14T08:38:57;9.00;99.90
20977;DHT22;10647;51.016;3.720;2023-03-14T08:41:24;9.10;99.90
20977;DHT22;10647;51.016;3.720;2023-03-14T08:43:52;8.90;99.90
20977;DHT22;10647;51.016;3.720;2023-03-14T08:46:19;9.00;99.90
20977;DHT22;10647;51.016;3.720;2023-03-14T08:48:47;9.10;99.90
20977;DHT22;10647;51.016;3.720;2023-03-14T08:51:15;9.40;99.90
20977;DHT22;10647;51.016;3.720;2023-03-14T08:53:43;9.50;99.90
20977;DHT22;10647;51.016;3.720;2023-03-14T08:56:11;9.70;99.90
20977;DHT22;10647;51.016;3.720;2023-03-14T08:58:38;9.90;99.90
20977;DHT22;10647;51.016;3.720;2023-03-14T09:01:09;9.80;99.90
20977;DHT22;10647;51.016;3.720;2023-03-14T09:03:38;9.50;99.90
20977;DHT22;10647;51.016;3.720;2023-03-14T09:06:08;9.60;99.90
20977;DHT22;10647;51.016;3.720;2023-03-14T09:08:37;9.50;99.90
20977;DHT22;10647;51.016;3.720;2023-03-14T09:11:09;9.50;99.90
20977;DHT22;10647;51.016;3.720;2023-03-14T09:13:36;9.40;99.90
20977;DHT22;10647;51.016;3.720;2023-03-14T09:16:05;9.40;99.90
20977;DHT22;10647;51.016;3.720;2023-03-14T09:18:33;9.30;99.90
20977;DHT22;10647;51.016;3.720;2023-03-14T09:21:01;9.10;99.90
20977;DHT22;10647;51.016;3.720;2023-03-14T09:23:28;9.30;99.90
20977;DHT22;10647;51.016;3.720;2023-03-14T09:25:57;9.30;99.90
20977;DHT22;10647;51.016;3.720;2023-03-14T09:28:25;9.20;99.90
20977;DHT22;10647;51.016;3.720;2023-03-14T09:30:53;9.20;99.90
20977;DHT22;10647;51.016;3.720;2023-03-14T09:33:21;9.30;99.90
20977;DHT22;10647;51.016;3.720;2023-03-14T09:35:49;9.30;99.90
20977;DHT22;10647;51.016;3.720;2023-03-14T09:38:17;9.30;99.90
20977;DHT22;10647;51.016;3.720;2023-03-14T09:40:47;9.40;99.90
20977;DHT22;10647;51.016;3.720;2023-03-14T09:43:16;9.30;99.90
20977;DHT22;10647;51.016;3.720;2023-03-14T09:45:51;9.40;99.90
20977;DHT22;10647;51.016;3.720;2023-03-14T09:48:24;9.30;99.90
20977;DHT22;10647;51.016;3.720;2023-03-14T09:50:54;9.40;99.90
20977;DHT22;10647;51.016;3.720;2023-03-14T09:59:10;9.50;99.90
20977;DHT22;10647;51.016;3.720;2023-03-14T10:01:40;9.30;99.90
20977;DHT22;10647;51.016;3.720;2023-03-14T10:04:15;9.20;99.90
20977;DHT22;10647;51.016;3.720;2023-03-14T10:06:44;9.30;99.90
20977;DHT22;10647;51.016;3.720;2023-03-14T10:09:20;9.30;99.90
20977;DHT22;10647;51.016;3.720;2023-03-14T10:11:59;9.20;99.90
20977;DHT22;10647;51.016;3.720;2023-03-14T10:14:34;9.10;99.90
20977;DHT22;10647;51.016;3.720;2023-03-14T10:17:12;9.20;99.90
20977;DHT22;10647;51.016;3.720;2023-03-14T10:19:36;9.10;99.90
20977;DHT22;10647;51.016;3.720;2023-03-14T10:22:05;9.10;99.90
20977;DHT22;10647;51.016;3.720;2023-03-14T10:24:34;9.10;99.90
20977;DHT22;10647;51.016;3.720;2023-03-14T10:27:05;9.00;99.90
20977;DHT22;10647;51.016;3.720;2023-03-14T10:29:34;9.10;99.90
20977;DHT22;10647;51.016;3.720;2023-03-14T10:32:04;8.90;99.90
20977;DHT22;10647;51.016;3.720;2023-03-14T10:37:26;8.90;99.90
20977;DHT22;10647;51.016;3.720;2023-03-14T10:39:58;8.90;99.90
20977;DHT22;10647;51.016;3.720;2023-03-14T10:42:27;8.80;99.90
20977;DHT22;10647;51.016;3.720;2023-03-14T10:45:00;8.70;99.90
20977;DHT22;10647;51.016;3.720;2023-03-14T10:47:28;8.60;99.90
20977;DHT22;10647;51.016;3.720;2023-03-14T10:49:56;8.70;99.90
20977;DHT22;10647;51.016;3.720;2023-03-14T10:52:28;8.70;99.90
20977;DHT22;10647;51.016;3.720;2023-03-14T10:55:00;8.60;99.90
20977;DHT22;10647;51.016;3.720;2023-03-14T10:57:28;8.60;99.90
20977;DHT22;10647;51.016;3.720;2023-03-14T10:59:57;8.60;99.90
20977;DHT22;10647;51.016;3.720;2023-03-14T11:05:59;8.60;99.90
20977;DHT22;10647;51.016;3.720;2023-03-14T11:08:42;8.60;99.90
20977;DHT22;10647;51.016;3.720;2023-03-14T11:11:22;8.80;99.90
20977;DHT22;10647;51.016;3.720;2023-03-14T11:14:06;9.00;99.90
20977;DHT22;10647;51.016;3.720;2023-03-14T11:20:12;9.60;99.90
20977;DHT22;10647;51.016;3.720;2023-03-14T11:22:59;9.70;99.90
20977;DHT22;10647;51.016;3.720;2023-03-14T11:28:39;10.60;99.90
20977;DHT22;10647;51.016;3.720;2023-03-14T11:31:28;11.00;99.90
20977;DHT22;10647;51.016;3.720;2023-03-14T11:37:04;10.90;99.90
20977;DHT22;10647;51.016;3.720;2023-03-14T11:39:39;10.60;99.90
20977;DHT22;10647;51.016;3.720;2023-03-14T11:42:12;10.50;99.90
20977;DHT22;10647;51.016;3.720;2023-03-14T11:44:41;10.50;99.90
20977;DHT22;10647;51.016;3.720;2023-03-14T11:47:15;10.60;99.90
20977;DHT22;10647;51.016;3.720;2023-03-14T11:49:59;10.80;99.90
20977;DHT22;10647;51.016;3.720;2023-03-14T11:52:49;10.50;99.90
20977;DHT22;10647;51.016;3.720;2023-03-14T12:01:08;10.10;99.90
20977;DHT22;10647;51.016;3.720;2023-03-14T12:03:49;10.20;99.90
20977;DHT22;10647;51.016;3.720;2023-03-14T12:06:32;10.00;99.90
20977;DHT22;10647;51.016;3.720;2023-03-14T12:08:57;10.10;99.90
20977;DHT22;10647;51.016;3.720;2023-03-14T12:11:38;10.30;99.90
20977;DHT22;10647;51.016;3.720;2023-03-14T12:14:32;10.50;99.90
20977;DHT22;10647;51.016;3.720;2023-03-14T12:17:05;10.80;99.90
20977;DHT22;10647;51.016;3.720;2023-03-14T12:19:35;10.60;99.90
20977;DHT22;10647;51.016;3.720;2023-03-14T12:30:40;9.60;99.90
20977;DHT22;10647;51.016;3.720;2023-03-14T12:33:19;9.60;99.90
20977;DHT22;10647;51.016;3.720;2023-03-14T12:35:49;9.70;99.90
20977;DHT22;10647;51.016;3.720;2023-03-14T12:43:41;9.80;99.90
20977;DHT22;10647;51.016;3.720;2023-03-14T12:48:43;9.90;99.90
20977;DHT22;10647;51.016;3.720;2023-03-14T12:51:20;9.60;99.90
20977;DHT22;10647;51.016;3.720;2023-03-14T12:54:04;9.40;99.90
20977;DHT22;10647;51.016;3.720;2023-03-14T12:59:31;8.70;99.90
20977;DHT22;10647;51.016;3.720;2023-03-14T13:02:28;8.60;99.90
20977;DHT22;10647;51.016;3.720;2023-03-14T13:05:24;8.60;99.90
20977;DHT22;10647;51.016;3.720;2023-03-14T13:10:30;8.40;99.90
20977;DHT22;10647;51.016;3.720;2023-03-14T13:13:20;8.40;99.90
20977;DHT22;10647;51.016;3.720;2023-03-14T13:15:49;8.60;99.90
20977;DHT22;10647;51.016;3.720;2023-03-14T13:18:35;8.90;99.90
20977;DHT22;10647;51.016;3.720;2023-03-14T13:21:16;9.10;99.90
20977;DHT22;10647;51.016;3.720;2023-03-14T13:23:58;9.40;99.90
20977;DHT22;10647;51.016;3.720;2023-03-14T13:26:39;9.50;99.90
20977;DHT22;10647;51.016;3.720;2023-03-14T13:29:27;9.60;99.90
20977;DHT22;10647;51.016;3.720;2023-03-14T13:32:25;9.60;99.90
20977;DHT22;10647;51.016;3.720;2023-03-14T13:34:57;10.00;99.90
20977;DHT22;10647;51.016;3.720;2023-03-14T13:37:26;10.40;99.90
20977;DHT22;10647;51.016;3.720;2023-03-14T13:39:55;10.70;99.90
20977;DHT22;10647;51.016;3.720;2023-03-14T13:42:28;10.80;99.90
20977;DHT22;10647;51.016;3.720;2023-03-14T13:44:56;10.70;99.90
20977;DHT22;10647;51.016;3.720;2023-03-14T13:47:26;10.60;99.90
20977;DHT22;10647;51.016;3.720;2023-03-14T13:49:56;10.50;99.90
20977;DHT22;10647;51.016;3.720;2023-03-14T13:52:38;10.40;99.90
20977;DHT22;10647;51.016;3.720;2023-03-14T13:55:13;10.30;99.90
20977;DHT22;10647;51.016;3.720;2023-03-14T14:00:33;9.60;99.90
20977;DHT22;10647;51.016;3.720;2023-03-14T14:03:01;9.20;99.90
20977;DHT22;10647;51.016;3.720;2023-03-14T14:05:29;8.90;99.90
20977;DHT22;10647;51.016;3.720;2023-03-14T14:07:58;8.70;99.90
20977;DHT22;10647;51.016;3.720;2023-03-14T14:10:26;8.50;99.90
20977;DHT22;10647;51.016;3.720;2023-03-14T14:12:59;8.40;99.90
20977;DHT22;10647;51.016;3.720;2023-03-14T14:15:28;8.40;99.90
20977;DHT22;10647;51.016;3.720;2023-03-14T14:21:08;8.70;99.90
20977;DHT22;10647;51.016;3.720;2023-03-14T14:23:37;8.80;99.90
20977;DHT22;10647;51.016;3.720;2023-03-14T14:26:06;9.00;99.90
20977;DHT22;10647;51.016;3.720;2023-03-14T14:28:35;9.20;99.90
20977;DHT22;10647;51.016;3.720;2023-03-14T14:33:40;9.50;99.90
20977;DHT22;10647;51.016;3.720;2023-03-14T14:39:05;9.70;99.90
20977;DHT22;10647;51.016;3.720;2023-03-14T14:41:35;9.80;99.90
20977;DHT22;10647;51.016;3.720;2023-03-14T14:44:04;9.70;99.90
20977;DHT22;10647;51.016;3.720;2023-03-14T14:46:33;9.80;99.90
20977;DHT22;10647;51.016;3.720;2023-03-14T14:49:18;9.70;99.90
20977;DHT22;10647;51.016;3.720;2023-03-14T14:51:47;9.70;99.90
20977;DHT22;10647;51.016;3.720;2023-03-14T14:54:19;9.40;99.90
20977;DHT22;10647;51.016;3.720;2023-03-14T14:57:06;9.30;99.90
20977;DHT22;10647;51.016;3.720;2023-03-14T14:59:41;9.20;99.90
20977;DHT22;10647;51.016;3.720;2023-03-14T15:02:09;9.10;99.90
20977;DHT22;10647;51.016;3.720;2023-03-14T15:04:36;9.10;99.90
20977;DHT22;10647;51.016;3.720;2023-03-14T15:07:03;9.10;99.90
20977;DHT22;10647;51.016;3.720;2023-03-14T15:09:31;8.90;99.90
20977;DHT22;10647;51.016;3.720;2023-03-14T15:11:59;9.00;99.90
20977;DHT22;10647;51.016;3.720;2023-03-14T15:14:26;9.00;99.90
20977;DHT22;10647;51.016;3.720;2023-03-14T15:16:54;9.10;99.90
20977;DHT22;10647;51.016;3.720;2023-03-14T15:19:24;9.20;99.90
20977;DHT22;10647;51.016;3.720;2023-03-14T15:24:41;9.10;99.90
20977;DHT22;10647;51.016;3.720;2023-03-14T15:27:17;9.20;99.90
20977;DHT22;10647;51.016;3.720;2023-03-14T15:29:44;9.40;99.90
20977;DHT22;10647;51.016;3.720;2023-03-14T15:32:14;9.50;99.90
20977;DHT22;10647;51.016;3.720;2023-03-14T15:34:43;9.60;99.90
20977;DHT22;10647;51.016;3.720;2023-03-14T15:37:15;9.60;99.90
20977;DHT22;10647;51.016;3.720;2023-03-14T15:39:43;9.70;99.90
20977;DHT22;10647;51.016;3.720;2023-03-14T15:42:11;9.80;99.90
20977;DHT22;10647;51.016;3.720;2023-03-14T15:44:39;9.80;99.90
20977;DHT22;10647;51.016;3.720;2023-03-14T15:47:08;9.90;99.90
20977;DHT22;10647;51.016;3.720;2023-03-14T15:49:35;10.00;99.90
20977;DHT22;10647;51.016;3.720;2023-03-14T15:52:03;10.30;99.90
20977;DHT22;10647;51.016;3.720;2023-03-14T15:54:31;10.50;99.90
20977;DHT22;10647;51.016;3.720;2023-03-14T15:56:58;10.70;99.90
20977;DHT22;10647;51.016;3.720;2023-03-14T15:59:26;10.80;99.90
20977;DHT22;10647;51.016;3.720;2023-03-14T16:01:54;10.90;99.90
20977;DHT22;10647;51.016;3.720;2023-03-14T16:04:21;11.10;99.90
20977;DHT22;10647;51.016;3.720;2023-03-14T16:06:49;10.70;99.90
20977;DHT22;10647;51.016;3.720;2023-03-14T16:09:17;10.70;99.90
20977;DHT22;10647;51.016;3.720;2023-03-14T16:11:46;10.80;99.90
20977;DHT22;10647;51.016;3.720;2023-03-14T16:14:13;10.60;99.90
20977;DHT22;10647;51.016;3.720;2023-03-14T16:16:41;10.60;99.90
20977;DHT22;10647;51.016;3.720;2023-03-14T16:19:08;10.60;99.90
20977;DHT22;10647;51.016;3.720;2023-03-14T16:21:36;10.80;99.90
20977;DHT22;10647;51.016;3.720;2023-03-14T16:24:04;10.90;99.90
20977;DHT22;10647;51.016;3.720;2023-03-14T16:26:32;11.00;99.90
20977;DHT22;10647;51.016;3.720;2023-03-14T16:29:02;11.00;99.90
20977;DHT22;10647;51.016;3.720;2023-03-14T16:31:30;10.90;99.90
20977;DHT22;10647;51.016;3.720;2023-03-14T16:34:02;10.70;99.90
20977;DHT22;10647;51.016;3.720;2023-03-14T16:36:30;10.70;99.90
20977;DHT22;10647;51.016;3.720;2023-03-14T16:38:57;10.50;99.90
20977;DHT22;10647;51.016;3.720;2023-03-14T16:41:25;10.30;99.90
20977;DHT22;10647;51.016;3.720;2023-03-14T16:43:54;10.30;99.90
20977;DHT22;10647;51.016;3.720;2023-03-14T16:46:22;10.00;99.90
20977;DHT22;10647;51.016;3.720;2023-03-14T16:48:51;10.10;99.90
20977;DHT22;10647;51.016;3.720;2023-03-14T16:51:18;10.10;99.90
20977;DHT22;10647;51.016;3.720;2023-03-14T16:53:46;10.20;99.90
20977;DHT22;10647;51.016;3.720;2023-03-14T16:56:14;10.20;99.90
20977;DHT22;10647;51.016;3.720;2023-03-14T16:58:42;10.20;99.90
20977;DHT22;10647;51.016;3.720;2023-03-14T17:01:12;10.10;99.90
20977;DHT22;10647;51.016;3.720;2023-03-14T17:03:48;10.10;99.90
20977;DHT22;10647;51.016;3.720;2023-03-14T17:09:01;10.00;99.90
20977;DHT22;10647;51.016;3.720;2023-03-14T17:11:31;9.90;99.90
20977;DHT22;10647;51.016;3.720;2023-03-14T17:14:00;9.80;99.90